Time;durP1;ratioP1;P1;durP2;ratioP2;P2;SDS_P1;SDS_P2;PMS_P1;PMS_P2;Temp;Humidity;BMP_temperature;BMP_pressure;BME280_temperature;BME280_humidity;BME280_pressure;Samples;Min_cycle;Max_cycle;Signal;HPM_P1;HPM_P2
2022/08/03 00:01:25;;;;;;;7.18;0.50;;;;;;;23.77;69.96;100768.50;5009280;28;20029;-61
2022/08/03 00:03:51;;;;;;;0.80;0.50;;;;;;;23.72;70.47;100770.19;5009954;28;20029;-63
2022/08/03 00:06:17;;;;;;;0.77;0.40;;;;;;;23.68;70.18;100772.47;4992093;28;20033;-64
2022/08/03 00:08:42;;;;;;;1.05;0.30;;;;;;;23.63;70.70;100774.22;5008484;28;20033;-63
2022/08/03 00:11:08;;;;;;;1.60;0.47;;;;;;;23.66;70.29;100765.75;5009407;28;20041;-65
2022/08/03 00:13:34;;;;;;;0.60;0.30;;;;;;;24.07;67.19;100760.53;5008869;28;20026;-62
2022/08/03 00:15:59;;;;;;;1.33;0.35;;;;;;;24.19;67.61;100760.56;5008800;28;20033;-63
2022/08/03 00:18:24;;;;;;;3.08;0.30;;;;;;;24.07;69.45;100765.84;5012870;28;20053;-62
2022/08/03 00:20:50;;;;;;;0.93;0.55;;;;;;;23.79;71.31;100770.91;5011232;28;20037;-62
2022/08/03 00:23:16;;;;;;;1.50;0.38;;;;;;;23.44;73.17;100770.69;5029134;28;20025;-62
2022/08/03 00:25:41;;;;;;;0.98;0.30;;;;;;;23.22;74.49;100766.84;5024954;28;20428;-63
2022/08/03 00:28:10;;;;;;;1.27;0.50;;;;;;;22.99;75.40;100770.16;5027686;28;20052;-63
2022/08/03 00:30:35;;;;;;;0.82;0.50;;;;;;;22.80;75.81;100762.13;5028759;28;20029;-64
2022/08/03 00:33:02;;;;;;;0.88;0.30;;;;;;;22.72;76.66;100762.34;5028674;28;20052;-61
2022/08/03 00:35:28;;;;;;;3.88;0.40;;;;;;;22.66;77.36;100762.44;5024787;28;20380;-62
2022/08/03 00:37:54;;;;;;;1.23;0.40;;;;;;;22.56;78.26;100762.91;5027573;28;20473;-62
2022/08/03 00:40:19;;;;;;;1.02;0.40;;;;;;;22.43;78.84;100768.31;5028818;28;20061;-63
2022/08/03 00:42:54;;;;;;;1.20;0.40;;;;;;;22.33;79.24;100768.78;5026726;28;20040;-63
2022/08/03 00:45:21;;;;;;;0.90;0.50;;;;;;;22.27;80.01;100766.97;5028323;28;20026;-64
2022/08/03 00:47:51;;;;;;;1.23;0.60;;;;;;;22.16;79.94;100757.88;5011298;28;20083;-61
2022/08/03 00:50:18;;;;;;;0.77;0.43;;;;;;;22.12;80.60;100764.63;5028876;28;20029;-62
2022/08/03 00:52:44;;;;;;;2.28;0.40;;;;;;;22.00;80.84;100763.66;5028543;28;20173;-63
2022/08/03 00:55:13;;;;;;;1.13;0.40;;;;;;;21.92;81.31;100763.88;5024632;28;20231;-63
2022/08/03 00:57:38;;;;;;;1.05;0.50;;;;;;;21.87;81.21;100769.00;5027863;28;20029;-63
2022/08/03 01:00:09;;;;;;;1.05;0.40;;;;;;;21.93;80.93;100762.88;5025456;28;20028;-63
2022/08/03 01:02:36;;;;;;;0.77;0.47;;;;;;;21.98;81.63;100767.53;5028776;28;20073;-61
2022/08/03 01:05:01;;;;;;;3.78;0.50;;;;;;;21.94;82.37;100766.31;5024186;28;20055;-63
2022/08/03 01:07:36;;;;;;;2.55;0.50;;;;;;;21.81;82.08;100753.94;5028413;28;20076;-62
2022/08/03 01:10:38;;;;;;;1.13;0.40;;;;;;;21.69;81.06;100766.25;5028524;28;20049;-63
2022/08/03 01:13:43;;;;;;;0.80;0.50;;;;;;;21.61;81.54;100759.34;5021620;28;20033;-62
2022/08/03 01:16:22;;;;;;;1.17;0.50;;;;;;;21.63;81.59;100761.78;5020978;28;20049;-62
2022/08/03 01:19:25;;;;;;;0.90;0.55;;;;;;;21.76;80.22;100757.22;5027927;28;20104;-62
2022/08/03 01:22:17;;;;;;;0.93;0.30;;;;;;;21.77;81.77;100766.00;5028421;28;20172;-63
2022/08/03 01:25:13;;;;;;;2.42;0.40;;;;;;;21.77;80.56;100763.34;4996950;28;20057;-61
2022/08/03 01:28:04;;;;;;;3.75;0.50;;;;;;;21.88;80.93;100757.38;5008349;28;20375;-62
2022/08/03 01:30:33;;;;;;;1.30;0.40;;;;;;;21.87;81.88;100753.09;5024707;28;20553;-63
2022/08/03 01:33:04;;;;;;;2.63;0.60;;;;;;;21.82;82.74;100747.59;5027905;28;20037;-63
2022/08/03 01:35:41;;;;;;;1.10;0.55;;;;;;;21.76;82.83;100751.09;5023831;28;20041;-63
2022/08/03 01:38:15;;;;;;;1.38;0.40;;;;;;;21.70;83.70;100746.66;5010024;28;20136;-62
2022/08/03 01:40:44;;;;;;;2.25;0.50;;;;;;;21.59;83.97;100745.47;5027954;28;20473;-62
2022/08/03 01:43:18;;;;;;;1.05;0.40;;;;;;;21.59;84.27;100739.34;5024740;28;20481;-64
2022/08/03 01:45:44;;;;;;;1.23;0.55;;;;;;;21.57;84.07;100741.41;5026593;28;20044;-63
2022/08/03 01:48:14;;;;;;;1.80;0.60;;;;;;;21.57;84.12;100742.22;5028085;28;20041;-62
2022/08/03 01:50:41;;;;;;;0.85;0.40;;;;;;;21.54;83.87;100740.00;5027737;28;20507;-61
2022/08/03 01:53:09;;;;;;;1.00;0.70;;;;;;;21.46;84.35;100738.38;5023777;28;20025;-61
2022/08/03 01:55:36;;;;;;;0.75;0.43;;;;;;;21.55;84.32;100744.25;5027764;28;20489;-62
2022/08/03 01:58:02;;;;;;;1.20;0.50;;;;;;;21.55;84.59;100748.75;5027965;28;20030;-62
2022/08/03 02:00:30;;;;;;;2.25;0.70;;;;;;;21.47;84.22;100736.53;5025602;28;20022;-61
2022/08/03 02:02:57;;;;;;;0.88;0.50;;;;;;;21.44;84.20;100740.41;5027663;28;20037;-63
2022/08/03 02:05:25;;;;;;;1.00;0.47;;;;;;;21.42;84.41;100742.47;5027665;28;20025;-62
2022/08/03 02:07:51;;;;;;;0.65;0.43;;;;;;;21.30;84.87;100741.47;5027783;28;20497;-62
2022/08/03 02:10:20;;;;;;;1.50;0.40;;;;;;;21.31;84.63;100745.75;5025210;28;20430;-61
2022/08/03 02:12:48;;;;;;;0.85;0.50;;;;;;;21.26;85.05;100735.00;5031004;28;20040;-63
2022/08/03 02:15:15;;;;;;;1.20;0.60;;;;;;;21.16;85.69;100737.22;5030105;28;20044;-64
2022/08/03 02:17:42;;;;;;;3.42;0.68;;;;;;;21.10;86.20;100735.41;5029530;28;20037;-61
2022/08/03 02:20:10;;;;;;;2.50;0.55;;;;;;;21.13;86.39;100740.28;5030920;28;20049;-61
2022/08/03 02:22:39;;;;;;;1.08;0.50;;;;;;;21.12;86.12;100738.66;5013423;28;20052;-63
2022/08/03 02:25:11;;;;;;;0.80;0.50;;;;;;;21.12;86.26;100733.34;5031281;28;20025;-63
2022/08/03 02:27:41;;;;;;;1.23;0.50;;;;;;;21.06;86.50;100726.22;5027837;28;20034;-63
2022/08/03 02:30:09;;;;;;;2.55;0.50;;;;;;;21.03;86.60;100731.94;5011396;28;20088;-63
2022/08/03 02:32:39;;;;;;;0.70;0.60;;;;;;;21.04;86.54;100730.91;5030901;28;20103;-63
2022/08/03 02:35:15;;;;;;;1.45;0.50;;;;;;;20.96;86.51;100731.94;5031133;28;20044;-62
2022/08/03 02:37:45;;;;;;;1.98;0.80;;;;;;;20.93;86.97;100729.69;5030718;28;20504;-62
2022/08/03 02:42:38;;;;;;;0.70;0.43;;;;;;;20.73;87.39;100731.56;5247166;23;20058;-62
2022/08/03 02:45:11;;;;;;;0.60;0.38;;;;;;;20.82;86.40;100731.13;5011135;28;20037;-62
2022/08/03 02:47:38;;;;;;;1.40;0.30;;;;;;;20.88;85.99;100734.81;5009654;28;20040;-62
2022/08/03 02:50:05;;;;;;;3.75;0.47;;;;;;;20.84;86.02;100742.34;4993142;28;20088;-62
2022/08/03 02:52:34;;;;;;;0.98;0.50;;;;;;;20.91;85.22;100739.69;5010399;28;20117;-63
2022/08/03 02:55:02;;;;;;;1.20;0.40;;;;;;;21.02;84.85;100743.56;5010830;28;20084;-64
2022/08/03 02:57:30;;;;;;;2.15;0.47;;;;;;;21.05;84.44;100741.31;5010660;28;20481;-61
2022/08/03 02:59:57;;;;;;;1.10;0.50;;;;;;;21.08;84.69;100742.72;5010350;28;20053;-63
2022/08/03 03:02:23;;;;;;;0.70;0.50;;;;;;;21.03;85.13;100740.69;5010579;28;20040;-62
2022/08/03 03:04:51;;;;;;;4.30;0.75;;;;;;;20.96;85.59;100733.78;5010092;28;20145;-61
2022/08/03 03:07:17;;;;;;;1.95;0.50;;;;;;;20.84;86.62;100734.41;5010722;28;20026;-61
2022/08/03 03:09:43;;;;;;;1.10;0.50;;;;;;;20.80;86.81;100733.16;5010484;28;20030;-62
2022/08/03 03:12:11;;;;;;;2.55;0.50;;;;;;;20.73;86.87;100740.34;5010301;28;20033;-61
2022/08/03 03:14:37;;;;;;;1.83;0.57;;;;;;;20.65;87.71;100737.88;5010397;28;20079;-62
2022/08/03 03:17:07;;;;;;;1.92;0.40;;;;;;;20.61;88.27;100735.84;5009962;28;20034;-63
2022/08/03 03:19:33;;;;;;;2.65;0.47;;;;;;;20.53;88.82;100739.50;5009802;28;20121;-64
2022/08/03 03:22:01;;;;;;;1.88;0.50;;;;;;;20.47;89.11;100745.59;5009209;28;20033;-62
2022/08/03 03:24:29;;;;;;;5.78;0.55;;;;;;;20.43;88.92;100741.72;5010234;28;20026;-62
2022/08/03 03:26:56;;;;;;;1.23;0.50;;;;;;;20.37;89.42;100740.66;5002601;28;20026;-62
2022/08/03 03:29:22;;;;;;;0.80;0.45;;;;;;;20.27;89.51;100745.56;4992296;28;20034;-62
2022/08/03 03:31:48;;;;;;;1.17;0.47;;;;;;;20.44;87.15;100744.16;5010007;28;20080;-62
2022/08/03 03:34:14;;;;;;;1.40;0.57;;;;;;;20.58;86.23;100742.34;5009951;28;20023;-63
2022/08/03 03:36:39;;;;;;;0.95;0.40;;;;;;;20.69;85.09;100744.41;5010560;28;20382;-64
2022/08/03 03:39:05;;;;;;;1.70;0.57;;;;;;;20.83;83.30;100753.13;5009930;28;20083;-61
2022/08/03 03:41:30;;;;;;;4.85;0.52;;;;;;;21.02;81.85;100751.50;5009852;28;20053;-62
2022/08/03 03:43:58;;;;;;;0.60;0.40;;;;;;;21.13;81.16;100751.69;5027734;28;20049;-62
2022/08/03 03:46:24;;;;;;;2.88;0.50;;;;;;;21.18;81.43;100751.88;5029861;28;20025;-63
2022/08/03 03:48:50;;;;;;;2.17;0.30;;;;;;;21.21;81.54;100756.00;5029266;28;20370;-64
2022/08/03 03:51:15;;;;;;;0.75;0.40;;;;;;;21.22;81.71;100754.97;5029316;28;20025;-60
2022/08/03 03:53:54;;;;;;;3.65;0.35;;;;;;;21.19;78.59;100750.06;5027886;28;20378;-62
2022/08/03 03:56:20;;;;;;;1.50;0.40;;;;;;;21.16;81.98;100753.13;5027768;28;20036;-61
2022/08/03 03:58:46;;;;;;;0.52;0.30;;;;;;;21.15;81.00;100751.50;5029104;28;20034;-61
2022/08/03 04:01:12;;;;;;;0.70;0.43;;;;;;;21.29;80.28;100749.63;5028984;28;20129;-60
2022/08/03 04:03:37;;;;;;;0.60;0.43;;;;;;;21.39;79.56;100753.47;5027795;28;20117;-64
2022/08/03 04:11:42;;;;;;;1.15;0.30;;;;;;;21.29;77.75;100752.28;5028995;28;20076;-60
2022/08/03 04:14:15;;;;;;;1.02;0.30;;;;;;;21.19;78.08;100755.34;5028495;28;20527;-63
2022/08/03 04:16:43;;;;;;;1.35;0.40;;;;;;;21.15;79.72;100754.94;5029063;28;20029;-65
2022/08/03 04:19:44;;;;;;;2.67;0.40;;;;;;;21.08;77.63;100751.50;5028385;28;20033;-63
2022/08/03 04:22:11;;;;;;;4.57;0.40;;;;;;;21.11;80.15;100755.56;5017293;28;20052;-65
2022/08/03 04:24:51;;;;;;;0.50;0.30;;;;;;;21.09;78.48;100757.59;5029065;28;20093;-64
2022/08/03 04:27:22;;;;;;;2.08;0.55;;;;;;;21.10;79.76;100759.22;5028545;28;20037;-64
2022/08/03 04:29:52;;;;;;;1.08;0.30;;;;;;;21.16;79.57;100764.53;5028573;28;20117;-65
2022/08/03 04:32:19;;;;;;;0.70;0.20;;;;;;;21.29;79.09;100769.00;5028669;28;20033;-64
2022/08/03 04:34:45;;;;;;;1.10;0.40;;;;;;;21.37;77.53;100775.91;5010955;28;20357;-62
2022/08/03 04:37:31;;;;;;;1.48;0.45;;;;;;;21.39;77.54;100777.34;5028558;28;20029;-62
2022/08/03 04:39:59;;;;;;;0.65;0.30;;;;;;;21.42;78.46;100776.91;5027148;28;20040;-63
2022/08/03 04:42:26;;;;;;;0.60;0.30;;;;;;;21.45;78.32;100781.81;5028317;28;20124;-63
2022/08/03 04:44:54;;;;;;;1.35;0.40;;;;;;;21.44;78.93;100785.47;5028306;28;20464;-63
2022/08/03 04:47:19;;;;;;;1.30;0.40;;;;;;;21.42;79.09;100782.22;5028617;28;20028;-61
2022/08/03 04:49:45;;;;;;;1.85;0.40;;;;;;;21.39;79.87;100782.63;5028413;28;20467;-62
2022/08/03 04:52:11;;;;;;;1.10;0.30;;;;;;;21.39;79.57;100781.81;5028220;28;20021;-65
2022/08/03 04:54:41;;;;;;;0.95;0.50;;;;;;;21.40;77.28;100784.25;5028128;28;20040;-61
2022/08/03 04:57:07;;;;;;;1.88;0.50;;;;;;;21.46;79.25;100783.44;5028203;28;20562;-61
2022/08/03 04:59:32;;;;;;;1.13;0.47;;;;;;;21.58;78.36;100790.75;5028146;28;20068;-65
2022/08/03 05:01:58;;;;;;;0.70;0.30;;;;;;;21.69;78.31;100788.28;5028472;28;20051;-65
2022/08/03 05:04:23;;;;;;;2.28;0.47;;;;;;;21.75;77.66;100786.59;5028520;28;20377;-65
2022/08/03 05:06:49;;;;;;;3.22;0.40;;;;;;;21.74;77.32;100796.38;5028266;28;20095;-62
2022/08/03 05:09:14;;;;;;;2.70;0.40;;;;;;;21.73;77.70;100799.28;5028546;28;20034;-61
2022/08/03 05:11:40;;;;;;;0.95;0.40;;;;;;;21.73;77.11;100799.28;5028833;28;20017;-62
2022/08/03 05:14:15;;;;;;;;;;;;;;;;;;;;;
2022/08/03 05:16:41;;;;;;;1.17;0.30;;;;;;;21.73;78.84;100804.59;5028263;28;20036;-63
2022/08/03 05:19:06;;;;;;;2.05;0.40;;;;;;;21.74;78.66;100803.56;5027840;28;20026;-62
2022/08/03 05:21:33;;;;;;;2.53;0.57;;;;;;;21.77;77.79;100805.75;5028270;28;20084;-62
2022/08/03 05:23:58;;;;;;;2.20;0.50;;;;;;;21.80;77.66;100808.00;5028342;28;20047;-61
2022/08/03 05:26:24;;;;;;;6.88;0.68;;;;;;;21.80;77.38;100802.69;5028024;28;20366;-62
2022/08/03 05:28:49;;;;;;;2.20;0.40;;;;;;;21.82;76.96;100798.81;5027889;28;20021;-62
2022/08/03 05:31:15;;;;;;;6.65;0.40;;;;;;;21.89;76.55;100792.66;5026698;28;20070;-63
2022/08/03 05:33:42;;;;;;;2.70;0.60;;;;;;;21.89;76.18;100804.09;5028207;28;20022;-62
2022/08/03 05:36:07;;;;;;;1.98;0.40;;;;;;;21.97;77.32;100801.22;5027794;28;20045;-61
2022/08/03 05:38:33;;;;;;;1.35;0.50;;;;;;;21.94;76.48;100804.28;5026470;28;20033;-62
2022/08/03 05:40:58;;;;;;;2.15;0.45;;;;;;;21.99;77.15;100791.19;5010154;28;20505;-63
2022/08/03 05:43:24;;;;;;;2.53;0.50;;;;;;;22.06;74.66;100793.84;5027664;28;20508;-63
2022/08/03 05:45:50;;;;;;;1.80;0.30;;;;;;;22.14;76.15;100791.78;5032118;28;20504;-62
2022/08/03 05:48:15;;;;;;;2.65;0.60;;;;;;;22.24;76.10;100785.16;5013899;28;20052;-60
2022/08/03 05:50:41;;;;;;;4.45;0.50;;;;;;;22.35;76.12;100792.47;5031895;28;20061;-63
2022/08/03 05:53:06;;;;;;;2.38;0.57;;;;;;;22.44;76.41;100785.88;5031695;28;20022;-60
2022/08/03 05:55:32;;;;;;;0.70;0.40;;;;;;;22.52;75.68;100780.31;5031619;28;20029;-60
2022/08/03 05:57:58;;;;;;;6.70;0.57;;;;;;;22.64;75.78;100783.91;5031432;28;20044;-61
2022/08/03 06:00:23;;;;;;;3.00;0.50;;;;;;;22.76;75.53;100779.50;5031716;28;20026;-63
2022/08/03 06:02:49;;;;;;;4.85;0.35;;;;;;;22.87;75.08;100775.34;5013802;28;20029;-61
2022/08/03 06:05:14;;;;;;;1.23;0.50;;;;;;;23.02;74.29;100772.38;5031541;28;20036;-61
2022/08/03 06:07:40;;;;;;;2.25;0.40;;;;;;;23.11;73.00;100771.06;5031584;28;20037;-62
2022/08/03 06:10:06;;;;;;;2.40;0.50;;;;;;;23.19;73.00;100768.09;5031429;28;20026;-63
2022/08/03 06:12:34;;;;;;;4.43;0.52;;;;;;;23.33;72.33;100776.75;5031284;28;20144;-63
2022/08/03 06:15:00;;;;;;;2.92;0.50;;;;;;;23.79;70.94;100769.06;5029886;28;20025;-65
2022/08/03 06:17:26;;;;;;;3.30;0.40;;;;;;;23.85;69.63;100786.00;5030997;28;20026;-63
2022/08/03 06:19:52;;;;;;;2.42;0.60;;;;;;;23.81;70.29;100779.50;5031147;28;20037;-65
2022/08/03 06:22:18;;;;;;;3.40;0.40;;;;;;;23.83;70.57;100777.44;5031346;28;20474;-64
2022/08/03 06:24:49;;;;;;;1.08;0.40;;;;;;;23.81;70.05;100782.97;5030955;28;20393;-64
2022/08/03 06:27:15;;;;;;;1.55;0.60;;;;;;;23.87;70.85;100780.44;5031395;28;20511;-65
2022/08/03 06:29:40;;;;;;;3.03;0.60;;;;;;;23.86;69.58;100787.63;5031298;28;20033;-64
2022/08/03 06:32:06;;;;;;;1.15;0.38;;;;;;;23.94;69.10;100786.50;5031119;28;20419;-61
2022/08/03 06:34:31;;;;;;;1.48;0.30;;;;;;;24.04;69.39;100798.25;5030775;28;20033;-62
2022/08/03 06:36:57;;;;;;;2.45;0.50;;;;;;;24.15;69.72;100797.47;5031129;28;20029;-61
2022/08/03 06:39:23;;;;;;;6.15;0.60;;;;;;;24.22;68.49;100801.88;5030711;28;20615;-61
2022/08/03 06:41:48;;;;;;;1.00;0.50;;;;;;;24.25;68.73;100796.09;5030679;28;20033;-63
2022/08/03 06:44:14;;;;;;;3.60;0.70;;;;;;;24.41;68.56;100798.97;5029764;28;20065;-60
2022/08/03 06:46:41;;;;;;;2.20;0.85;;;;;;;24.52;67.58;100799.25;5029523;28;20484;-61
2022/08/03 06:49:06;;;;;;;3.22;0.40;;;;;;;24.61;66.71;100790.66;5028295;28;20437;-61
2022/08/03 06:51:32;;;;;;;2.42;0.32;;;;;;;24.80;66.87;100791.41;5030269;28;20560;-64
2022/08/03 06:53:57;;;;;;;1.13;0.30;;;;;;;24.96;66.47;100789.94;5029039;28;20147;-62
2022/08/03 06:56:25;;;;;;;3.28;0.30;;;;;;;25.18;66.07;100793.63;5028131;28;20583;-61
2022/08/03 06:58:51;;;;;;;3.67;0.43;;;;;;;25.29;65.72;100798.16;5029213;28;20443;-61
2022/08/03 07:01:16;;;;;;;2.97;0.35;;;;;;;25.40;64.73;100792.00;5029792;28;20025;-63
2022/08/03 07:03:42;;;;;;;1.15;0.30;;;;;;;25.44;64.86;100793.16;5029081;28;20040;-61
2022/08/03 07:06:07;;;;;;;2.90;0.40;;;;;;;25.47;64.53;100797.22;5029590;28;20179;-64
2022/08/03 07:08:33;;;;;;;3.85;0.30;;;;;;;25.56;63.58;100789.63;5029202;28;20120;-62
2022/08/03 07:10:58;;;;;;;1.08;0.30;;;;;;;25.65;63.78;100794.41;5029063;28;20030;-62
2022/08/03 07:13:24;;;;;;;1.42;0.30;;;;;;;25.81;64.00;100790.19;5029302;28;20030;-63
2022/08/03 07:15:49;;;;;;;1.58;0.22;;;;;;;25.94;62.57;100794.44;5029098;28;20086;-63
2022/08/03 07:18:15;;;;;;;1.92;0.40;;;;;;;26.03;61.81;100791.16;5029002;28;20021;-61
2022/08/03 07:20:41;;;;;;;2.50;0.40;;;;;;;26.08;62.81;100788.56;5028915;28;20055;-60
2022/08/03 07:23:06;;;;;;;4.20;0.43;;;;;;;26.28;62.00;100798.00;5029050;28;20017;-61
2022/08/03 07:25:32;;;;;;;1.88;0.47;;;;;;;26.47;61.11;100788.75;5029070;28;20040;-61
2022/08/03 07:27:57;;;;;;;2.35;0.30;;;;;;;26.62;60.25;100785.53;5028981;28;20626;-62
2022/08/03 07:30:30;;;;;;;2.20;0.38;;;;;;;26.73;60.71;100784.63;5029240;28;20073;-61
2022/08/03 07:32:56;;;;;;;5.30;0.40;;;;;;;26.99;59.77;100791.19;5029546;28;20026;-61
2022/08/03 07:35:21;;;;;;;5.95;0.73;;;;;;;27.19;59.93;100788.03;5025926;28;20362;-62
2022/08/03 07:37:47;;;;;;;1.02;0.30;;;;;;;27.14;59.18;100785.28;5008036;28;20090;-61
2022/08/03 07:40:12;;;;;;;1.35;0.28;;;;;;;27.18;59.30;100781.84;5028858;28;20511;-61
2022/08/03 07:42:38;;;;;;;1.45;0.20;;;;;;;27.31;58.88;100775.34;4982908;28;1334790;-60
2022/08/03 07:45:04;;;;;;;5.53;0.50;;;;;;;27.43;58.37;100779.50;5020762;28;20074;-60
2022/08/03 07:47:30;;;;;;;0.55;0.30;;;;;;;27.58;57.76;100783.44;5009593;28;20093;-60
2022/08/03 07:49:56;;;;;;;0.52;0.25;;;;;;;27.77;57.99;100784.78;5010188;28;20164;-61
2022/08/03 07:55:06;;;;;;;1.65;0.30;;;;;;;28.12;56.00;100775.50;5010018;28;20045;-60
2022/08/03 07:57:32;;;;;;;0.88;0.20;;;;;;;28.18;55.56;100780.66;5009755;28;20029;-60
2022/08/03 07:59:58;;;;;;;0.52;0.30;;;;;;;28.35;55.41;100777.91;5009017;28;20037;-63
2022/08/03 08:02:24;;;;;;;2.00;0.20;;;;;;;28.47;54.97;100778.53;5006997;28;20033;-60
2022/08/03 08:04:49;;;;;;;0.77;0.20;;;;;;;28.67;54.62;100772.53;5006328;28;20062;-61
2022/08/03 08:07:15;;;;;;;0.55;0.20;;;;;;;28.98;54.10;100774.38;5027080;28;20061;-60
2022/08/03 08:09:41;;;;;;;1.85;0.30;;;;;;;28.93;52.99;100776.22;5024678;28;20470;-61
2022/08/03 08:12:07;;;;;;;0.50;0.30;;;;;;;28.92;53.43;100772.72;5008883;28;20034;-61
2022/08/03 08:14:34;;;;;;;0.60;0.20;;;;;;;28.97;51.45;100777.31;5006536;28;20041;-61
2022/08/03 08:16:59;;;;;;;0.45;0.20;;;;;;;28.93;51.60;100776.22;5024549;28;20040;-60
2022/08/03 08:19:25;;;;;;;3.05;0.20;;;;;;;29.07;50.95;100780.06;5006297;28;20037;-60
2022/08/03 08:21:50;;;;;;;0.68;0.30;;;;;;;29.21;51.09;100773.19;4998783;28;20092;-61
2022/08/03 08:24:16;;;;;;;0.50;0.28;;;;;;;29.29;51.20;100772.69;5008954;28;20092;-61
2022/08/03 08:26:41;;;;;;;0.60;0.20;;;;;;;29.34;50.36;100770.00;5002129;28;20083;-61
2022/08/03 08:29:07;;;;;;;1.25;0.25;;;;;;;29.46;50.09;100769.00;5011348;28;20029;-62
2022/08/03 08:31:33;;;;;;;0.98;0.20;;;;;;;29.62;49.42;100776.06;5014229;28;20021;-61
2022/08/03 08:34:09;;;;;;;0.82;0.45;;;;;;;29.62;47.55;100765.31;5019053;28;20116;-63
2022/08/03 08:36:35;;;;;;;0.40;0.20;;;;;;;29.66;48.52;100769.09;5003707;28;20062;-62
2022/08/03 08:39:01;;;;;;;0.93;0.20;;;;;;;29.76;47.10;100762.97;5005837;28;20457;-61
2022/08/03 08:41:27;;;;;;;1.38;0.20;;;;;;;29.74;47.66;100763.22;5003383;28;20030;-62
2022/08/03 08:43:53;;;;;;;3.70;0.20;;;;;;;29.76;47.37;100763.75;5018081;28;20509;-61
2022/08/03 08:46:19;;;;;;;3.42;0.40;;;;;;;29.67;46.22;100766.16;5021577;28;20071;-61
2022/08/03 08:48:47;;;;;;;0.50;0.20;;;;;;;29.88;47.15;100764.31;5024229;28;20052;-61
2022/08/03 08:51:13;;;;;;;0.22;0.20;;;;;;;29.97;47.47;100764.59;5015463;28;20034;-62
2022/08/03 08:53:43;;;;;;;0.35;0.20;;;;;;;30.20;47.27;100760.66;5024558;28;20044;-61
2022/08/03 08:56:14;;;;;;;1.88;0.30;;;;;;;30.31;45.84;100756.88;5021440;28;20033;-62
2022/08/03 08:58:55;;;;;;;0.65;0.20;;;;;;;30.21;46.29;100759.56;5013824;28;20037;-61
2022/08/03 09:01:21;;;;;;;1.90;0.28;;;;;;;30.40;47.29;100760.63;5027240;28;20037;-62
2022/08/03 09:03:47;;;;;;;0.30;0.20;;;;;;;30.54;47.46;100763.59;5018968;28;20040;-61
2022/08/03 09:06:14;;;;;;;0.93;0.20;;;;;;;30.51;45.92;100762.25;5024511;28;20126;-62
2022/08/03 09:08:39;;;;;;;3.28;0.30;;;;;;;30.34;46.82;100756.34;5018212;28;20041;-61
2022/08/03 09:11:06;;;;;;;0.30;0.10;;;;;;;30.15;45.73;100757.94;5018370;28;20030;-63
2022/08/03 09:13:32;;;;;;;1.30;0.30;;;;;;;30.09;46.25;100759.81;5024588;28;20103;-62
2022/08/03 09:16:20;;;;;;;1.95;0.20;;;;;;;30.12;44.70;100751.22;5024732;28;20378;-61
2022/08/03 09:18:52;;;;;;;0.60;0.20;;;;;;;30.15;46.40;100749.88;5020732;28;20084;-61
2022/08/03 09:21:28;;;;;;;0.57;0.20;;;;;;;30.22;45.98;100750.44;5019139;28;20037;-61
2022/08/03 09:23:56;;;;;;;1.27;0.20;;;;;;;30.06;45.07;100752.28;5029270;28;20042;-61
2022/08/03 09:26:30;;;;;;;0.60;0.20;;;;;;;30.08;42.38;100754.72;5014056;28;20038;-61
2022/08/03 09:29:07;;;;;;;0.40;0.20;;;;;;;30.06;46.14;100751.50;5028476;28;20029;-61
2022/08/03 09:31:38;;;;;;;0.75;0.20;;;;;;;30.34;45.82;100748.28;5029144;28;20036;-61
2022/08/03 09:34:09;;;;;;;0.93;0.15;;;;;;;30.31;44.92;100746.13;5028142;28;20029;-61
2022/08/03 09:36:44;;;;;;;0.35;0.20;;;;;;;30.28;45.20;100744.78;5031758;28;20028;-61
2022/08/03 09:39:11;;;;;;;;;;;;;;;30.40;40.21;100741.81;5029916;28;20041;-62
2022/08/03 09:41:38;;;;;;;0.93;0.20;;;;;;;30.46;44.97;100740.75;5022326;28;19934;-61
2022/08/03 09:44:04;;;;;;;1.38;0.20;;;;;;;30.48;46.01;100743.97;5023663;28;20072;-62
2022/08/03 09:46:33;;;;;;;0.40;0.20;;;;;;;30.61;45.06;100740.78;5025715;28;20541;-63
2022/08/03 09:49:11;;;;;;;0.50;0.20;;;;;;;30.59;43.17;100734.06;5022256;28;20022;-61
2022/08/03 09:51:37;;;;;;;0.35;0.20;;;;;;;30.55;44.05;100739.13;5017773;28;20041;-61
2022/08/03 09:54:03;;;;;;;2.50;0.20;;;;;;;30.54;43.53;100744.78;5029995;28;20129;-61
2022/08/03 09:56:46;;;;;;;1.63;0.20;;;;;;;30.56;39.44;100734.56;5030516;28;20079;-61
2022/08/03 09:59:21;;;;;;;0.90;0.20;;;;;;;30.28;42.24;100733.22;5023011;28;20366;-61
2022/08/03 10:01:47;;;;;;;0.20;0.10;;;;;;;30.25;43.08;100731.88;5019923;28;20456;-61
2022/08/03 10:04:15;;;;;;;2.38;0.20;;;;;;;30.36;41.81;100735.38;5028888;28;20033;-60
2022/08/03 10:06:45;;;;;;;0.50;0.38;;;;;;;30.52;43.00;100728.91;5018776;28;20110;-62
2022/08/03 10:09:13;;;;;;;2.80;0.20;;;;;;;30.75;43.39;100724.88;5028557;28;20045;-63
2022/08/03 10:11:53;;;;;;;2.28;0.10;;;;;;;30.50;39.67;100725.69;5028697;28;20034;-62
2022/08/03 10:14:19;;;;;;;2.92;0.10;;;;;;;30.31;43.22;100720.03;5025640;28;20389;-61
2022/08/03 10:16:46;;;;;;;1.65;0.20;;;;;;;30.44;42.41;100718.69;5028162;28;20535;-61
2022/08/03 10:19:13;;;;;;;1.88;0.20;;;;;;;30.58;42.85;100705.56;5021881;28;20485;-61
2022/08/03 10:21:45;;;;;;;0.95;0.20;;;;;;;30.62;43.47;100706.63;5024362;28;20068;-62
2022/08/03 10:24:14;;;;;;;3.03;0.30;;;;;;;30.65;42.82;100706.88;5026942;28;20080;-61
2022/08/03 10:26:41;;;;;;;0.35;0.20;;;;;;;30.64;41.61;100712.53;5023139;28;20033;-60
2022/08/03 10:29:13;;;;;;;1.55;0.20;;;;;;;30.72;42.81;100700.44;5027356;28;20021;-61
2022/08/03 10:31:43;;;;;;;2.33;0.20;;;;;;;30.88;43.79;100699.28;5021155;28;20122;-61
2022/08/03 10:34:19;;;;;;;0.20;0.10;;;;;;;30.97;42.37;100695.75;5023952;28;20116;-62
2022/08/03 10:36:46;;;;;;;0.40;0.20;;;;;;;31.23;43.09;100688.41;5010737;28;20352;-61
2022/08/03 10:39:13;;;;;;;0.95;0.20;;;;;;;31.33;42.47;100680.28;5024788;28;20456;-62
2022/08/03 10:41:41;;;;;;;0.95;0.25;;;;;;;31.39;42.47;100672.19;5003376;28;20377;-62
2022/08/03 10:44:16;;;;;;;0.47;0.20;;;;;;;31.23;41.27;100672.25;5030298;28;20449;-60
2022/08/03 10:46:44;;;;;;;0.75;0.20;;;;;;;31.31;42.56;100674.38;5026412;28;20464;-62
2022/08/03 10:49:14;;;;;;;0.40;0.20;;;;;;;31.54;41.61;100672.13;5019488;28;20076;-61
2022/08/03 10:51:41;;;;;;;0.38;0.10;;;;;;;31.76;42.34;100672.53;5018662;28;20703;-60
2022/08/03 10:54:36;;;;;;;1.05;0.20;;;;;;;31.81;39.83;100660.91;5029631;28;20082;-61
2022/08/03 10:57:34;;;;;;;0.20;0.10;;;;;;;31.81;41.92;100663.59;5029804;28;20047;-61
2022/08/03 10:59:57;;;;;;;0.73;0.20;;;;;;;31.97;41.82;100663.22;5017700;28;20045;-62
2022/08/03 11:03:00;;;;;;;0.85;0.20;;;;;;;32.11;38.25;100662.56;5023211;28;20017;-61
2022/08/03 11:05:28;;;;;;;0.40;0.20;;;;;;;31.73;41.17;100651.53;5023611;28;20040;-61
2022/08/03 11:08:23;;;;;;;0.45;0.20;;;;;;;31.30;41.23;100653.13;5027214;28;20041;-61
2022/08/03 11:10:50;;;;;;;3.00;0.20;;;;;;;31.52;41.86;100653.53;5022970;28;20112;-61
2022/08/03 11:13:19;;;;;;;0.55;0.30;;;;;;;31.63;42.10;100656.97;5023664;28;20113;-61
2022/08/03 11:15:47;;;;;;;0.82;0.10;;;;;;;31.59;42.22;100650.53;5023660;28;20080;-61
2022/08/03 11:18:30;;;;;;;0.30;0.20;;;;;;;31.51;38.86;100657.31;5030124;28;20115;-61
2022/08/03 11:20:58;;;;;;;0.68;0.10;;;;;;;31.88;40.62;100648.72;5004242;28;20029;-61
2022/08/03 11:23:46;;;;;;;2.58;0.20;;;;;;;31.90;37.43;100653.84;5024421;28;20033;-62
2022/08/03 11:26:14;;;;;;;1.75;0.20;;;;;;;31.74;40.71;100653.13;5024937;28;20406;-61
2022/08/03 11:28:42;;;;;;;0.22;0.20;;;;;;;31.66;39.95;100645.66;5028093;28;20033;-60
2022/08/03 11:31:23;;;;;;;0.30;0.17;;;;;;;31.68;38.57;100648.88;5022657;28;20401;-60
2022/08/03 11:34:09;;;;;;;0.40;0.20;;;;;;;32.09;36.80;100643.97;5028298;28;20121;-61
2022/08/03 11:37:12;;;;;;;0.93;0.20;;;;;;;32.17;37.12;100642.53;5021453;28;20493;-61
2022/08/03 11:39:48;;;;;;;0.32;0.10;;;;;;;31.99;38.91;100641.38;5025396;28;20124;-62
2022/08/03 11:42:26;;;;;;;0.30;0.10;;;;;;;31.62;36.41;100631.13;5004026;28;20041;-62
2022/08/03 11:44:53;;;;;;;0.30;0.20;;;;;;;31.39;40.18;100637.19;5025986;28;20032;-61
2022/08/03 11:47:20;;;;;;;0.30;0.10;;;;;;;31.32;41.37;100635.63;5020758;28;20034;-60